Time;durP1;ratioP1;P1;durP2;ratioP2;P2;SDS_P1;SDS_P2;PMS_P1;PMS_P2;Temp;Humidity;BMP_temperature;BMP_pressure;BME280_temperature;BME280_humidity;BME280_pressure;Samples;Min_cycle;Max_cycle;Signal;HPM_P1;HPM_P2
2023/10/02 00:01:18;;;;;;;6.70;3.10;;;;;;;25.71;33.18;101310.77;102735;1297;66371;-79
2023/10/02 00:03:48;;;;;;;6.90;3.50;;;;;;;25.71;33.19;101314.36;102671;1295;63435;-79
2023/10/02 00:06:17;;;;;;;5.90;3.60;;;;;;;25.71;33.20;101317.23;102605;1292;62101;-81
2023/10/02 00:08:42;;;;;;;6.00;3.50;;;;;;;25.71;33.29;101320.52;102822;1294;64838;-81
2023/10/02 00:14:20;;;;;;;8.70;3.50;;;;;;;25.70;33.06;101318.20;102742;1294;62185;-81
2023/10/02 00:17:15;;;;;;;5.60;3.30;;;;;;;25.70;33.04;101319.14;102599;1300;62207;-81
2023/10/02 00:19:59;;;;;;;4.90;3.00;;;;;;;25.69;33.10;101319.38;102805;1297;64000;-80
2023/10/02 00:22:43;;;;;;;5.30;3.00;;;;;;;25.69;33.13;101320.63;102805;1294;66667;-81
2023/10/02 00:25:16;;;;;;;5.60;3.20;;;;;;;25.69;33.01;101321.52;102669;1297;62216;-81
2023/10/02 00:27:54;;;;;;;5.20;3.10;;;;;;;25.69;33.11;101326.76;102805;1296;63257;-81
2023/10/02 00:30:42;;;;;;;6.40;3.20;;;;;;;25.69;32.86;101332.54;102639;1297;64152;-81
2023/10/02 00:33:11;;;;;;;5.20;2.90;;;;;;;25.69;33.02;101333.27;102669;1294;66487;-81
2023/10/02 00:35:50;;;;;;;6.20;3.10;;;;;;;25.69;33.12;101334.52;102674;1295;62208;-81
2023/10/02 00:38:16;;;;;;;;;;;;;;;25.69;33.03;101334.70;102729;1296;62118;-81
2023/10/02 00:40:41;;;;;;;5.40;2.90;;;;;;;25.67;33.20;101336.87;102674;1297;62218;-81
2023/10/02 00:45:58;;;;;;;6.10;3.40;;;;;;;25.68;33.02;101342.02;102706;1295;62227;-81
2023/10/02 00:48:28;;;;;;;7.60;3.20;;;;;;;25.68;33.03;101343.84;102714;1294;62277;-81
2023/10/02 00:50:59;;;;;;;5.40;3.10;;;;;;;25.68;33.02;101342.93;102664;1292;63939;-81
2023/10/02 00:53:53;;;;;;;7.00;3.10;;;;;;;25.67;32.98;101341.67;102700;1294;66592;-79
2023/10/02 00:56:28;;;;;;;5.50;3.40;;;;;;;25.67;33.05;101342.39;102641;1297;62209;-81
2023/10/02 00:58:58;;;;;;;6.00;3.30;;;;;;;25.67;33.10;101344.05;102718;1296;62193;-81
2023/10/02 01:01:25;;;;;;;6.00;3.10;;;;;;;25.67;33.11;101346.38;102715;1297;64023;-80
2023/10/02 01:04:10;;;;;;;7.90;3.20;;;;;;;25.68;33.15;101343.11;102765;1295;62683;-80
2023/10/02 01:06:54;;;;;;;6.40;3.50;;;;;;;25.67;33.01;101345.48;102722;1297;62111;-80
2023/10/02 01:09:28;;;;;;;6.40;3.30;;;;;;;25.67;33.01;101351.45;102734;1297;62081;-80
2023/10/02 01:11:57;;;;;;;6.20;3.20;;;;;;;25.68;33.15;101352.30;102596;1298;63859;-81
2023/10/02 01:14:50;;;;;;;;;;;;;;;25.67;33.02;101355.58;102420;1295;66468;-81
2023/10/02 01:17:17;;;;;;;6.40;3.20;;;;;;;25.66;33.09;101359.34;102590;1294;62090;-80
2023/10/02 01:19:57;;;;;;;6.20;3.30;;;;;;;25.65;33.06;101361.86;102750;1294;62212;-80
2023/10/02 01:22:26;;;;;;;6.30;3.20;;;;;;;25.66;33.10;101366.14;102722;1297;63589;-81
2023/10/02 01:25:14;;;;;;;6.10;3.40;;;;;;;25.66;33.08;101371.57;102721;1294;67586;-81
2023/10/02 01:27:40;;;;;;;5.60;3.20;;;;;;;25.65;33.12;101367.81;102738;1297;62214;-81
2023/10/02 01:30:21;;;;;;;7.70;3.10;;;;;;;25.66;33.05;101365.45;102672;1295;63020;-81
2023/10/02 01:33:06;;;;;;;5.50;3.00;;;;;;;25.65;33.11;101363.85;102375;1303;62777;-81
2023/10/02 01:35:34;;;;;;;5.40;3.00;;;;;;;25.66;33.20;101370.31;102610;1298;75416;-80
2023/10/02 01:38:00;;;;;;;5.20;2.80;;;;;;;25.65;33.22;101373.05;102588;1299;62472;-80
2023/10/02 01:40:28;;;;;;;6.60;3.20;;;;;;;25.65;33.11;101380.08;102729;1294;62206;-81
2023/10/02 01:43:11;;;;;;;6.50;3.20;;;;;;;25.65;33.12;101384.06;102627;1297;63946;-81
2023/10/02 01:45:47;;;;;;;6.80;3.30;;;;;;;25.65;33.16;101393.29;102639;1297;66672;-79
2023/10/02 01:48:14;;;;;;;5.80;3.00;;;;;;;25.65;33.29;101394.36;102700;1296;62226;-79
2023/10/02 01:50:44;;;;;;;5.90;3.20;;;;;;;25.65;33.24;101397.21;102685;1299;62135;-79
2023/10/02 01:53:28;;;;;;;6.30;3.40;;;;;;;25.65;33.12;101395.09;102708;1297;63767;-79
2023/10/02 01:56:00;;;;;;;5.60;3.20;;;;;;;25.65;33.24;101401.20;102647;1294;74994;-80
2023/10/02 01:58:29;;;;;;;5.20;3.30;;;;;;;25.64;33.21;101398.91;102702;1294;62172;-81
2023/10/02 02:00:57;;;;;;;7.30;3.30;;;;;;;25.65;33.21;101396.38;102705;1296;62166;-81
2023/10/02 02:03:28;;;;;;;7.70;3.30;;;;;;;25.65;33.35;101399.45;102486;1299;63958;-81
2023/10/02 02:05:54;;;;;;;6.10;3.20;;;;;;;25.65;33.32;101406.61;102699;1296;66732;-81
2023/10/02 02:08:22;;;;;;;6.30;3.30;;;;;;;25.65;33.23;101409.15;102665;1296;63296;-79
2023/10/02 02:10:54;;;;;;;8.20;3.30;;;;;;;25.64;33.10;101407.02;102615;1298;62126;-81
2023/10/02 02:13:20;;;;;;;6.90;3.40;;;;;;;25.64;33.13;101403.43;102673;1300;63778;-81
2023/10/02 02:15:51;;;;;;;5.30;3.00;;;;;;;25.64;33.23;101403.26;102677;1298;62254;-81
2023/10/02 02:18:20;;;;;;;6.40;3.30;;;;;;;25.64;33.36;101409.41;102634;1294;62303;-81
2023/10/02 02:20:58;;;;;;;6.10;3.20;;;;;;;25.64;33.25;101412.81;102416;1299;62161;-81
2023/10/02 02:23:28;;;;;;;8.80;3.20;;;;;;;25.64;33.35;101408.52;102627;1298;63840;-81
2023/10/02 02:25:53;;;;;;;6.70;2.90;;;;;;;25.64;33.19;101412.14;102576;1295;75226;-81
2023/10/02 02:28:21;;;;;;;5.90;3.10;;;;;;;25.63;33.39;101410.36;102667;1300;62195;-79
2023/10/02 02:30:47;;;;;;;5.00;3.20;;;;;;;25.63;33.25;101413.44;102462;1299;62240;-79
2023/10/02 02:33:14;;;;;;;6.30;3.20;;;;;;;25.63;33.29;101414.16;102718;1297;63385;-79
2023/10/02 02:35:39;;;;;;;6.70;3.10;;;;;;;25.63;33.41;101416.55;102717;1297;62195;-79
2023/10/02 02:38:14;;;;;;;5.50;3.10;;;;;;;25.63;33.38;101417.06;102632;1298;62236;-79
2023/10/02 02:40:41;;;;;;;6.20;3.10;;;;;;;25.62;33.42;101418.75;102647;1294;63422;-80
2023/10/02 02:43:19;;;;;;;5.40;3.00;;;;;;;25.62;33.42;101419.10;102654;1300;62215;-81
2023/10/02 02:45:47;;;;;;;6.30;3.20;;;;;;;25.62;33.49;101422.02;102725;1296;66732;-81
2023/10/02 02:48:15;;;;;;;6.60;3.50;;;;;;;25.62;33.29;101418.23;102592;1300;62770;-80
2023/10/02 02:50:41;;;;;;;5.90;2.90;;;;;;;25.61;33.33;101422.05;102739;1297;63247;-80
2023/10/02 02:53:16;;;;;;;5.20;3.00;;;;;;;25.62;33.37;101430.14;102718;1298;62216;-80
2023/10/02 02:55:43;;;;;;;8.20;3.20;;;;;;;25.61;33.48;101434.34;102700;1297;66777;-80
2023/10/02 02:58:09;;;;;;;6.10;3.10;;;;;;;25.61;33.30;101439.20;102637;1297;62135;-81
2023/10/02 03:00:39;;;;;;;7.90;3.50;;;;;;;25.61;33.38;101441.34;102685;1296;62227;-80
2023/10/02 03:03:29;;;;;;;5.30;3.20;;;;;;;25.60;33.53;101443.19;102712;1296;63702;-81
2023/10/02 03:05:52;;;;;;;6.40;3.10;;;;;;;25.60;33.34;101448.08;102330;1295;502231;-80
2023/10/02 03:08:19;;;;;;;4.80;2.80;;;;;;;25.61;33.35;101454.00;102654;1296;62181;-80
2023/10/02 03:10:57;;;;;;;6.50;3.20;;;;;;;25.61;33.38;101458.10;102630;1300;63024;-79
2023/10/02 03:13:28;;;;;;;6.90;3.30;;;;;;;25.60;33.37;101458.33;102679;1297;63970;-79
2023/10/02 03:15:58;;;;;;;5.90;3.20;;;;;;;25.61;33.30;101462.09;102583;1300;66671;-81
2023/10/02 03:18:30;;;;;;;7.20;3.10;;;;;;;25.61;33.35;101459.95;102751;1301;62229;-81
2023/10/02 03:20:58;;;;;;;5.30;2.90;;;;;;;25.60;33.34;101459.46;102727;1297;62120;-81
2023/10/02 03:23:28;;;;;;;6.40;3.20;;;;;;;25.59;33.43;101462.00;102744;1297;63918;-80
2023/10/02 03:25:56;;;;;;;6.40;3.40;;;;;;;25.58;33.44;101466.07;102699;1296;66531;-80
2023/10/02 03:28:28;;;;;;;6.20;3.60;;;;;;;25.57;33.43;101470.48;102418;1297;62246;-80
2023/10/02 03:30:54;;;;;;;6.50;3.60;;;;;;;25.56;33.37;101474.36;102700;1296;62138;-79
2023/10/02 03:33:22;;;;;;;6.90;3.90;;;;;;;25.55;33.43;101481.48;102672;1307;62429;-80
2023/10/02 03:35:58;;;;;;;7.40;3.20;;;;;;;25.54;33.32;101485.90;102656;1297;66861;-80
2023/10/02 03:38:32;;;;;;;7.10;3.60;;;;;;;25.52;33.44;101490.69;102704;1293;62205;-80
2023/10/02 03:41:01;;;;;;;7.40;3.40;;;;;;;25.51;33.36;101498.23;102752;1299;62291;-79
2023/10/02 03:43:48;;;;;;;7.60;3.80;;;;;;;25.49;33.42;101501.04;102698;1298;64013;-81
2023/10/02 03:46:23;;;;;;;7.50;3.50;;;;;;;25.47;33.50;101502.83;102662;1295;66530;-80
2023/10/02 03:49:03;;;;;;;6.30;3.30;;;;;;;25.45;33.48;101501.37;102608;1296;62126;-81
2023/10/02 03:51:42;;;;;;;8.80;3.90;;;;;;;25.42;33.43;101503.55;102693;1297;62153;-79
2023/10/02 03:54:17;;;;;;;10.40;4.10;;;;;;;25.40;33.58;101501.91;102581;1294;63899;-81
2023/10/02 03:56:50;;;;;;;9.00;3.70;;;;;;;25.39;33.69;101498.08;102808;1298;66849;-81
2023/10/02 03:59:21;;;;;;;9.50;3.50;;;;;;;25.37;33.68;101499.80;102697;1294;62242;-81
2023/10/02 04:01:47;;;;;;;7.50;3.80;;;;;;;25.36;33.70;101496.29;102856;1294;62023;-81
2023/10/02 04:06:43;;;;;;;8.00;4.00;;;;;;;25.34;33.81;101493.96;103021;1295;66649;-81
2023/10/02 04:09:26;;;;;;;10.30;4.60;;;;;;;25.32;33.94;101492.24;103030;1294;62212;-81
2023/10/02 04:11:55;;;;;;;8.50;4.40;;;;;;;25.31;33.97;101494.73;102891;1293;63380;-81
2023/10/02 04:14:31;;;;;;;11.10;4.10;;;;;;;25.30;34.11;101497.69;102909;1297;63855;-81
2023/10/02 04:17:21;;;;;;;9.10;3.60;;;;;;;25.30;34.07;101495.73;102683;1297;65603;-80
2023/10/02 04:19:51;;;;;;;8.30;4.20;;;;;;;25.28;34.25;101496.70;103126;1297;62665;-80
2023/10/02 04:22:25;;;;;;;7.90;4.10;;;;;;;25.28;34.23;101501.58;103004;1294;62111;-81
2023/10/02 04:24:58;;;;;;;7.80;4.00;;;;;;;25.29;34.36;101505.34;103181;1296;72591;-80
2023/10/02 04:28:00;;;;;;;9.00;4.30;;;;;;;25.27;34.36;101504.54;103244;1297;66471;-80
2023/10/02 04:32:49;;;;;;;8.10;3.80;;;;;;;25.24;34.47;101510.05;103129;1297;62041;-80
2023/10/02 04:38:08;;;;;;;9.10;4.10;;;;;;;25.25;34.69;101515.16;102960;1294;65396;-80
2023/10/02 04:40:44;;;;;;;9.70;3.90;;;;;;;25.25;34.54;101518.54;103014;1297;62103;-81
2023/10/02 04:43:38;;;;;;;;;;;;;;;;;;;;;
2023/10/02 04:46:14;;;;;;;9.30;4.00;;;;;;;25.26;34.70;101527.31;103512;1296;63737;-82
2023/10/02 04:48:42;;;;;;;9.90;3.90;;;;;;;25.26;34.75;101530.18;103838;1292;66450;-81
2023/10/02 04:51:12;;;;;;;11.10;4.60;;;;;;;25.25;34.79;101534.59;104109;1292;62166;-82
2023/10/02 04:53:42;;;;;;;10.70;3.80;;;;;;;25.24;34.91;101532.69;104472;1293;61994;-82
2023/10/02 04:58:49;;;;;;;8.80;3.70;;;;;;;25.21;35.12;101539.95;104481;1293;66585;-81
2023/10/02 05:01:41;;;;;;;11.80;4.30;;;;;;;25.20;35.24;101541.86;104392;1296;62118;-80
2023/10/02 05:04:18;;;;;;;22.20;4.50;;;;;;;25.19;35.48;101542.64;104121;1293;62122;-81
2023/10/02 05:06:44;;;;;;;12.30;4.60;;;;;;;25.19;35.63;101547.51;104302;1292;64362;-80
2023/10/02 05:09:19;;;;;;;10.90;4.20;;;;;;;25.18;35.76;101550.50;104095;1293;66510;-80
2023/10/02 05:11:52;;;;;;;9.90;3.90;;;;;;;25.17;35.89;101545.15;104955;1292;62125;-80
2023/10/02 05:14:48;;;;;;;8.30;4.00;;;;;;;25.15;35.67;101550.13;104394;1296;62073;-80
2023/10/02 05:17:17;;;;;;;12.20;4.30;;;;;;;25.14;35.76;101553.28;104312;1292;63854;-80
2023/10/02 05:20:00;;;;;;;;;;;;;;;25.13;35.72;101554.48;104285;1292;66531;-80
2023/10/02 05:22:27;;;;;;;8.60;4.00;;;;;;;25.08;35.71;101559.30;104198;1294;62072;-80
2023/10/02 05:24:58;;;;;;;9.70;4.10;;;;;;;25.08;35.76;101559.13;104061;1294;62118;-80
2023/10/02 05:27:35;;;;;;;9.10;4.50;;;;;;;25.06;35.78;101559.26;104107;1291;63866;-80
2023/10/02 05:30:12;;;;;;;10.00;4.60;;;;;;;25.03;35.87;101562.00;104126;1292;67679;-81
2023/10/02 05:32:38;;;;;;;11.70;4.20;;;;;;;25.00;35.96;101562.43;104080;1293;61917;-80
2023/10/02 05:37:45;;;;;;;10.30;4.50;;;;;;;24.98;36.04;101566.60;104403;1294;63749;-81
2023/10/02 05:43:09;;;;;;;11.20;4.70;;;;;;;24.86;36.06;101572.67;105764;1293;59580;-81
2023/10/02 05:45:39;;;;;;;9.10;4.10;;;;;;;24.84;36.15;101574.50;105843;1294;60222;-80
2023/10/02 05:48:07;;;;;;;9.20;4.50;;;;;;;24.85;36.30;101580.16;105643;1297;71037;-82
2023/10/02 05:50:35;;;;;;;11.40;5.00;;;;;;;24.82;36.31;101580.17;105873;1293;75426;-83
2023/10/02 05:53:01;;;;;;;14.50;5.70;;;;;;;24.78;36.32;101582.49;105875;1291;60633;-81
2023/10/02 05:55:26;;;;;;;16.10;5.30;;;;;;;24.69;36.34;101585.70;105217;1292;62070;-81
2023/10/02 05:57:55;;;;;;;12.50;4.40;;;;;;;24.61;36.48;101590.04;104357;1297;62131;-81
2023/10/02 06:00:20;;;;;;;18.50;4.70;;;;;;;24.60;36.75;101590.79;104591;1292;75135;-81
2023/10/02 06:02:58;;;;;;;17.20;5.10;;;;;;;24.63;37.05;101594.24;104670;1292;62584;-80
2023/10/02 06:05:24;;;;;;;15.20;5.10;;;;;;;24.62;37.08;101595.14;104707;1292;62049;-81
2023/10/02 06:07:51;;;;;;;12.70;5.80;;;;;;;24.49;37.02;101591.79;104748;1292;60506;-81
2023/10/02 06:10:26;;;;;;;12.30;5.10;;;;;;;24.31;37.07;101587.90;104413;1292;75281;-82
2023/10/02 06:13:02;;;;;;;11.10;5.20;;;;;;;24.25;37.19;101594.09;104956;1292;61945;-81
2023/10/02 06:15:48;;;;;;;14.40;4.70;;;;;;;24.22;37.11;101592.27;104731;1297;62642;-80
2023/10/02 06:18:24;;;;;;;13.00;4.80;;;;;;;24.26;37.10;101593.23;104783;1294;72616;-80
2023/10/02 06:21:03;;;;;;;12.90;4.20;;;;;;;24.30;37.11;101591.90;104238;1292;75384;-81
2023/10/02 06:23:37;;;;;;;;;;;;;;;24.31;36.99;101598.48;104392;1293;62235;-81
2023/10/02 06:26:09;;;;;;;11.30;4.80;;;;;;;24.25;36.92;101603.92;104577;1294;63374;-81
2023/10/02 06:28:35;;;;;;;13.90;4.90;;;;;;;24.25;36.93;101605.91;104530;1291;72552;-80
2023/10/02 06:31:01;;;;;;;9.70;4.40;;;;;;;24.26;36.85;101612.70;104611;1294;62106;-81
2023/10/02 06:33:27;;;;;;;12.70;4.70;;;;;;;24.27;37.01;101611.95;104465;1294;62000;-80
2023/10/02 06:36:03;;;;;;;11.40;5.20;;;;;;;24.28;36.98;101612.05;104080;1295;62225;-80
2023/10/02 06:38:32;;;;;;;12.30;5.10;;;;;;;24.30;36.90;101612.45;104251;1294;72593;-81
2023/10/02 06:41:07;;;;;;;;;;;;;;;24.31;36.71;101614.88;104001;1294;75446;-80
2023/10/02 06:43:33;;;;;;;10.10;4.50;;;;;;;24.24;36.69;101618.95;104735;1293;62015;-80
2023/10/02 06:46:16;;;;;;;13.70;4.30;;;;;;;24.20;36.54;101619.08;104296;1294;62840;-81
2023/10/02 06:48:43;;;;;;;11.40;4.90;;;;;;;24.17;36.44;101614.10;104229;1294;72464;-80
2023/10/02 06:51:10;;;;;;;11.80;4.50;;;;;;;24.13;36.45;101617.61;104195;1294;75264;-83
2023/10/02 06:53:40;;;;;;;13.70;4.40;;;;;;;24.11;36.43;101617.02;104427;1295;62105;-82
2023/10/02 06:56:10;;;;;;;15.70;4.40;;;;;;;24.03;36.43;101621.74;104425;1293;62158;-82
2023/10/02 06:58:52;;;;;;;11.50;4.10;;;;;;;24.00;36.60;101624.45;104823;1294;72509;-82
2023/10/02 07:01:26;;;;;;;8.80;4.10;;;;;;;24.06;36.73;101629.94;104555;1294;74149;-81
2023/10/02 07:03:51;;;;;;;20.40;4.40;;;;;;;24.09;36.77;101629.21;104577;1294;62255;-85
2023/10/02 07:06:19;;;;;;;15.30;4.70;;;;;;;24.10;36.81;101631.11;104345;1295;62476;-81
2023/10/02 07:08:48;;;;;;;13.30;4.30;;;;;;;24.09;36.90;101634.02;104368;1294;72518;-81
2023/10/02 07:11:14;;;;;;;14.70;4.30;;;;;;;24.08;36.93;101636.25;104499;1297;75486;-82
2023/10/02 07:13:56;;;;;;;12.50;4.70;;;;;;;24.12;36.92;101634.75;104329;1292;62206;-82
2023/10/02 07:16:22;;;;;;;12.50;4.60;;;;;;;24.15;36.84;101637.25;104421;1294;61970;-81
2023/10/02 07:18:53;;;;;;;16.00;4.30;;;;;;;24.21;36.89;101642.53;104527;1292;59985;-81
2023/10/02 07:21:22;;;;;;;14.40;4.90;;;;;;;24.27;37.00;101643.20;104462;1292;75260;-81
2023/10/02 07:23:51;;;;;;;12.40;4.50;;;;;;;24.32;37.04;101649.52;104383;1294;62099;-81
2023/10/02 07:26:19;;;;;;;13.30;4.40;;;;;;;24.35;36.93;101653.44;104321;1293;62251;-81
2023/10/02 07:28:51;;;;;;;12.60;4.60;;;;;;;24.36;36.87;101657.52;105885;1292;72357;-82
2023/10/02 07:31:20;;;;;;;10.70;4.30;;;;;;;24.37;36.74;101660.61;105881;1292;75560;-82
2023/10/02 07:33:46;;;;;;;8.90;3.60;;;;;;;24.41;36.70;101662.36;105904;1293;59690;-81
2023/10/02 07:36:15;;;;;;;13.20;4.50;;;;;;;24.43;36.62;101660.54;105790;1292;60021;-82
2023/10/02 07:38:42;;;;;;;12.70;4.20;;;;;;;24.39;36.45;101663.58;104872;1293;72380;-81
2023/10/02 07:41:23;;;;;;;10.10;4.10;;;;;;;24.37;36.39;101662.45;104351;1293;62286;-82
2023/10/02 07:43:53;;;;;;;12.80;5.30;;;;;;;24.34;36.23;101664.98;105792;1292;60342;-81
2023/10/02 07:46:21;;;;;;;19.20;4.60;;;;;;;24.28;36.19;101666.89;105924;1293;60034;-82
2023/10/02 07:49:04;;;;;;;12.80;4.50;;;;;;;24.24;36.04;101665.17;105884;1292;72535;-83
2023/10/02 07:51:45;;;;;;;16.30;4.70;;;;;;;24.18;35.99;101667.59;104514;1292;75328;-83
2023/10/02 07:54:13;;;;;;;15.30;4.70;;;;;;;24.07;35.84;101671.61;104622;1292;59605;-81
2023/10/02 07:56:40;;;;;;;17.10;4.60;;;;;;;23.84;35.72;101674.81;104681;1293;60651;-82
2023/10/02 07:59:07;;;;;;;13.50;4.40;;;;;;;23.73;35.94;101674.80;104598;1294;72315;-82
2023/10/02 08:01:33;;;;;;;27.60;4.90;;;;;;;23.69;35.94;101678.34;104722;1293;60305;-82
2023/10/02 08:04:01;;;;;;;15.10;4.60;;;;;;;23.65;36.27;101676.80;104844;1293;59990;-82
2023/10/02 08:06:33;;;;;;;20.20;4.80;;;;;;;23.61;36.35;101680.13;104718;1292;62323;-81
2023/10/02 08:11:49;;;;;;;10.60;4.20;;;;;;;23.65;36.48;101679.16;104610;1294;66468;-82
2023/10/02 08:14:38;;;;;;;12.10;4.50;;;;;;;23.68;36.33;101682.19;104231;1293;62016;-81
2023/10/02 08:17:27;;;;;;;14.80;3.90;;;;;;;23.67;36.30;101686.90;104296;1294;62073;-80
2023/10/02 08:19:58;;;;;;;13.80;4.00;;;;;;;23.70;36.32;101686.73;104423;1293;72491;-81
2023/10/02 08:22:25;;;;;;;10.50;3.70;;;;;;;23.79;36.29;101683.77;104288;1292;74736;-80
2023/10/02 08:24:52;;;;;;;9.10;3.70;;;;;;;23.83;36.21;101685.27;104539;1292;62096;-82
2023/10/02 08:27:18;;;;;;;11.10;3.80;;;;;;;23.80;36.10;101680.23;104648;1294;62086;-82
2023/10/02 08:29:44;;;;;;;12.30;4.00;;;;;;;23.78;35.89;101681.10;104570;1294;59903;-82
2023/10/02 08:32:11;;;;;;;12.90;4.30;;;;;;;23.66;35.77;101681.42;104518;1294;60845;-81
2023/10/02 08:34:36;;;;;;;8.70;3.70;;;;;;;23.61;35.79;101681.35;104695;1292;61415;-81
2023/10/02 08:37:08;;;;;;;9.80;4.00;;;;;;;23.68;35.91;101680.77;104474;1292;60401;-81
2023/10/02 08:39:34;;;;;;;9.40;3.80;;;;;;;23.74;35.86;101680.30;104395;1294;72448;-80
2023/10/02 08:42:08;;;;;;;15.80;4.30;;;;;;;23.67;35.67;101680.95;104618;1293;63492;-81
2023/10/02 08:44:38;;;;;;;11.20;4.00;;;;;;;23.55;35.81;101678.52;104514;1292;62185;-80
2023/10/02 08:47:06;;;;;;;13.70;4.10;;;;;;;23.52;35.87;101675.49;104292;1294;62013;-81
2023/10/02 08:49:34;;;;;;;8.20;3.70;;;;;;;23.56;35.95;101680.27;104651;1292;72278;-82
2023/10/02 08:52:03;;;;;;;21.00;4.40;;;;;;;23.56;35.89;101675.59;104688;1292;75612;-84
2023/10/02 08:54:32;;;;;;;15.00;3.80;;;;;;;23.49;36.03;101673.77;105024;1292;60542;-84
2023/10/02 08:57:12;;;;;;;16.60;4.40;;;;;;;23.45;36.24;101672.05;104906;1294;62030;-83
2023/10/02 08:59:41;;;;;;;18.70;4.10;;;;;;;23.48;36.51;101674.38;104819;1293;72520;-84
2023/10/02 09:02:13;;;;;;;;;;;;;;;23.49;36.58;101675.55;104748;1295;75829;-86
2023/10/02 09:04:55;;;;;;;17.50;4.00;;;;;;;23.34;36.36;101679.24;104826;1293;60193;-82
2023/10/02 09:10:57;;;;;;;;;;;;;;;;;;;;;
2023/10/02 09:13:14;;;;;;;10.40;3.40;;;;;;;23.11;36.59;101686.48;105188;1294;75089;-83
2023/10/02 09:15:47;;;;;;;15.70;3.50;;;;;;;22.94;36.31;101683.13;105445;1292;59925;-79
2023/10/02 09:18:33;;;;;;;10.80;3.40;;;;;;;22.77;36.46;101683.88;104812;1292;62118;-82
2023/10/02 09:21:15;;;;;;;9.30;3.50;;;;;;;22.66;36.28;101688.69;104295;1292;72618;-80
2023/10/02 09:23:49;;;;;;;9.20;3.20;;;;;;;22.53;36.19;101683.77;104229;1291;75498;-81
2023/10/02 09:26:27;;;;;;;11.10;4.00;;;;;;;22.44;36.25;101686.83;104479;1293;59880;-80
2023/10/02 09:29:00;;;;;;;10.00;3.60;;;;;;;22.50;36.10;101684.65;105272;1293;60751;-80
2023/10/02 09:31:30;;;;;;;12.80;4.40;;;;;;;22.61;36.01;101679.88;103805;1296;72503;-79
2023/10/02 09:33:56;;;;;;;13.10;3.50;;;;;;;22.72;35.88;101679.84;104203;1292;75476;-81
2023/10/02 09:36:36;;;;;;;9.30;3.30;;;;;;;22.83;35.98;101679.70;104201;1292;62128;-81
2023/10/02 09:42:05;;;;;;;10.30;3.70;;;;;;;23.11;35.66;101683.25;104235;1293;72433;-82
2023/10/02 09:44:42;;;;;;;15.80;3.30;;;;;;;23.20;35.57;101682.86;104030;1293;75093;-81
2023/10/02 09:47:09;;;;;;;15.90;3.50;;;;;;;23.26;35.41;101680.52;104081;1293;62091;-81
2023/10/02 09:49:39;;;;;;;12.40;3.70;;;;;;;23.28;35.45;101676.40;104122;1293;62676;-80
2023/10/02 09:52:15;;;;;;;12.60;4.00;;;;;;;23.39;35.43;101678.18;104022;1296;71738;-81
2023/10/02 09:55:07;;;;;;;10.30;3.60;;;;;;;23.42;35.30;101682.80;104251;1291;75203;-80
2023/10/02 09:57:49;;;;;;;13.60;3.30;;;;;;;23.34;35.06;101681.57;104077;1293;60098;-82
2023/10/02 10:00:37;;;;;;;14.60;3.90;;;;;;;23.30;35.03;101679.49;104084;1294;62155;-80
2023/10/02 10:03:24;;;;;;;19.20;4.20;;;;;;;23.30;35.06;101680.98;104720;1293;72550;-82
2023/10/02 10:06:16;;;;;;;13.20;3.40;;;;;;;23.42;35.19;101680.84;104534;1291;75288;-82
2023/10/02 10:12:17;;;;;;;13.70;3.80;;;;;;;23.53;34.94;101680.52;104869;1293;60107;-80
2023/10/02 10:14:41;;;;;;;12.30;3.20;;;;;;;23.59;34.86;101675.38;104751;1291;72817;-81
2023/10/02 10:17:49;;;;;;;12.20;3.50;;;;;;;23.56;34.69;101677.60;105704;1293;75311;-82
2023/10/02 10:20:25;;;;;;;15.00;3.90;;;;;;;23.63;34.60;101679.65;104891;1292;62194;-81
2023/10/02 10:22:51;;;;;;;14.40;3.40;;;;;;;23.68;34.47;101681.99;104215;1294;62102;-79
2023/10/02 10:25:41;;;;;;;10.40;3.30;;;;;;;23.63;34.13;101676.20;104204;1291;62197;-79
2023/10/02 10:28:09;;;;;;;10.00;3.40;;;;;;;23.65;34.19;101672.54;105430;1294;66522;-79
2023/10/02 10:30:44;;;;;;;14.50;3.60;;;;;;;23.70;34.13;101669.10;104313;1294;62134;-81
2023/10/02 10:35:36;;;;;;;10.20;3.30;;;;;;;23.69;33.99;101664.14;105774;1292;59827;-81
2023/10/02 10:38:07;;;;;;;14.00;3.90;;;;;;;23.61;33.72;101661.11;105724;1291;59424;-81
2023/10/02 10:40:46;;;;;;;12.10;3.70;;;;;;;23.42;33.67;101656.80;105617;1294;60277;-81
2023/10/02 10:43:13;;;;;;;10.60;3.10;;;;;;;23.31;33.76;101657.39;105924;1290;61847;-82
2023/10/02 10:45:39;;;;;;;9.20;3.30;;;;;;;23.35;33.84;101654.61;104355;1291;71567;-84
2023/10/02 10:48:19;;;;;;;8.50;3.30;;;;;;;23.44;33.89;101648.40;104018;1295;62145;-81
2023/10/02 10:50:57;;;;;;;12.10;3.60;;;;;;;23.45;33.82;101650.14;104240;1292;60327;-82
2023/10/02 10:53:32;;;;;;;11.50;3.10;;;;;;;23.44;33.80;101649.34;103833;1293;62092;-81
2023/10/02 10:56:17;;;;;;;12.40;3.70;;;;;;;23.43;33.85;101645.63;104049;1290;72463;-81
2023/10/02 10:58:44;;;;;;;9.50;3.30;;;;;;;23.55;34.16;101642.78;104050;1293;75112;-82
2023/10/02 11:01:13;;;;;;;20.00;3.40;;;;;;;23.68;34.04;101642.08;104563;1291;60299;-82
2023/10/02 11:03:39;;;;;;;16.60;4.80;;;;;;;23.74;34.01;101635.92;104590;1294;62968;-82
2023/10/02 11:06:09;;;;;;;19.30;3.80;;;;;;;23.79;34.12;101631.30;104417;1292;61194;-80
2023/10/02 11:08:38;;;;;;;17.80;3.80;;;;;;;23.84;34.13;101632.73;105590;1293;75797;-82
2023/10/02 11:11:11;;;;;;;14.20;3.70;;;;;;;23.92;34.20;101631.86;104767;1294;61861;-80
2023/10/02 11:16:23;;;;;;;13.00;3.50;;;;;;;24.03;34.25;101626.58;105746;1292;72497;-81
2023/10/02 11:19:13;;;;;;;12.70;3.60;;;;;;;24.10;34.19;101623.77;105690;1291;77053;-80
2023/10/02 11:21:45;;;;;;;12.60;3.80;;;;;;;24.17;34.22;101623.39;105997;1292;60145;-80
2023/10/02 11:24:21;;;;;;;9.60;3.30;;;;;;;24.25;34.39;101619.60;104291;1294;62096;-81
2023/10/02 11:26:47;;;;;;;10.40;3.60;;;;;;;24.32;34.52;101612.10;104615;1292;73451;-82
2023/10/02 11:29:20;;;;;;;15.90;3.70;;;;;;;24.32;34.42;101613.38;104509;1293;62206;-80
2023/10/02 11:35:02;;;;;;;10.60;3.10;;;;;;;24.21;34.05;101605.65;104195;1295;62096;-81
2023/10/02 11:37:28;;;;;;;10.10;3.50;;;;;;;24.27;34.18;101604.05;104617;1292;63894;-81
2023/10/02 11:39:55;;;;;;;8.70;3.10;;;;;;;24.33;34.24;101600.90;104455;1293;61046;-79
2023/10/02 11:42:22;;;;;;;13.40;4.00;;;;;;;24.37;34.40;101603.60;104168;1291;62678;-80
2023/10/02 11:44:47;;;;;;;18.90;3.90;;;;;;;24.36;34.10;101601.02;104647;1292;62078;-80
2023/10/02 11:47:14;;;;;;;10.90;3.40;;;;;;;24.28;33.84;101596.91;104206;1294;62209;-80
2023/10/02 11:49:40;;;;;;;18.30;4.00;;;;;;;24.24;33.80;101597.17;103822;1294;62077;-79
2023/10/02 11:52:05;;;;;;;13.20;3.60;;;;;;;24.19;33.62;101594.64;104023;1293;59981;-81
2023/10/02 11:54:39;;;;;;;21.90;4.10;;;;;;;24.23;33.76;101594.77;104414;1294;63788;-80
2023/10/02 11:57:09;;;;;;;17.90;4.00;;;;;;;24.29;34.01;101587.70;104251;1293;64011;-81
2023/10/02 11:59:37;;;;;;;13.70;3.50;;;;;;;24.34;34.25;101585.67;104378;1292;66459;-82
2023/10/02 12:02:04;;;;;;;15.50;3.80;;;;;;;24.32;34.27;101578.65;105747;1290;59773;-80
2023/10/02 12:04:31;;;;;;;22.20;4.00;;;;;;;24.30;34.13;101575.40;105630;1293;60421;-81
2023/10/02 12:06:57;;;;;;;14.70;3.60;;;;;;;24.22;33.94;101576.48;105611;1294;72337;-81
2023/10/02 12:09:23;;;;;;;23.10;4.10;;;;;;;24.23;34.08;101573.52;105582;1293;59767;-80
2023/10/02 12:11:48;;;;;;;10.80;4.00;;;;;;;24.28;34.01;101572.77;105684;1293;59924;-82
2023/10/02 12:14:14;;;;;;;12.00;3.70;;;;;;;24.32;33.89;101570.77;105717;1291;59311;-80
2023/10/02 12:16:41;;;;;;;11.40;3.60;;;;;;;24.32;33.65;101573.55;105531;1296;59867;-81
2023/10/02 12:19:10;;;;;;;14.60;4.00;;;;;;;24.31;33.54;101572.39;105822;1294;59922;-80
2023/10/02 12:21:36;;;;;;;22.70;4.20;;;;;;;24.35;33.56;101572.70;105849;1291;60878;-80
2023/10/02 12:24:03;;;;;;;15.60;3.60;;;;;;;24.39;33.48;101574.13;104796;1294;62518;-80